sensor_id;sensor_type;location;lat;lon;timestamp;temperature;humidity
8402;DHT22;4238;48.404;9.498;2023-04-22T04:00:37;7.80;97.50
8402;DHT22;4238;48.404;9.498;2023-04-22T04:03:04;7.90;92.30
8402;DHT22;4238;48.404;9.498;2023-04-22T04:05:31;7.80;87.20
8402;DHT22;4238;48.404;9.498;2023-04-22T04:07:58;7.70;85.10
8402;DHT22;4238;48.404;9.498;2023-04-22T04:10:25;7.50;88.50
8402;DHT22;4238;48.404;9.498;2023-04-22T04:12:52;7.40;94.00
8402;DHT22;4238;48.404;9.498;2023-04-22T04:15:19;7.40;95.50
8402;DHT22;4238;48.404;9.498;2023-04-22T04:17:48;7.60;96.80
8402;DHT22;4238;48.404;9.498;2023-04-22T04:20:15;7.60;95.80
8402;DHT22;4238;48.404;9.498;2023-04-22T04:22:42;7.50;94.30
8402;DHT22;4238;48.404;9.498;2023-04-22T04:25:09;7.40;90.50
8402;DHT22;4238;48.404;9.498;2023-04-22T04:27:36;7.40;94.50
8402;DHT22;4238;48.404;9.498;2023-04-22T04:30:04;7.40;92.20
8402;DHT22;4238;48.404;9.498;2023-04-22T04:32:31;7.40;88.40
8402;DHT22;4238;48.404;9.498;2023-04-22T04:35:01;7.40;86.70
8402;DHT22;4238;48.404;9.498;2023-04-22T04:37:29;7.20;93.40
8402;DHT22;4238;48.404;9.498;2023-04-22T04:39:56;7.10;95.30
8402;DHT22;4238;48.404;9.498;2023-04-22T04:42:24;7.10;96.40
8402;DHT22;4238;48.404;9.498;2023-04-22T04:44:51;7.00;99.50
8402;DHT22;4238;48.404;9.498;2023-04-22T04:47:19;6.80;99.90
8402;DHT22;4238;48.404;9.498;2023-04-22T04:49:47;6.90;99.90
8402;DHT22;4238;48.404;9.498;2023-04-22T04:52:19;6.90;99.90
8402;DHT22;4238;48.404;9.498;2023-04-22T04:54:46;6.90;99.90
8402;DHT22;4238;48.404;9.498;2023-04-22T04:57:12;7.00;99.90
8402;DHT22;4238;48.404;9.498;2023-04-22T04:59:39;7.10;99.90
8402;DHT22;4238;48.404;9.498;2023-04-22T05:02:06;7.10;99.90
8402;DHT22;4238;48.404;9.498;2023-04-22T05:04:33;7.20;99.90
8402;DHT22;4238;48.404;9.498;2023-04-22T05:07:00;7.10;99.90
8402;DHT22;4238;48.404;9.498;2023-04-22T05:09:28;7.20;99.90
8402;DHT22;4238;48.404;9.498;2023-04-22T05:11:57;7.30;99.90
8402;DHT22;4238;48.404;9.498;2023-04-22T05:14:24;7.30;99.90
8402;DHT22;4238;48.404;9.498;2023-04-22T05:16:51;7.40;99.90
8402;DHT22;4238;48.404;9.498;2023-04-22T05:19:18;7.40;99.90
8402;DHT22;4238;48.404;9.498;2023-04-22T05:21:44;7.50;99.90
8402;DHT22;4238;48.404;9.498;2023-04-22T05:24:11;7.60;99.90
8402;DHT22;4238;48.404;9.498;2023-04-22T05:26:40;7.70;99.90
8402;DHT22;4238;48.404;9.498;2023-04-22T05:29:07;7.60;99.90
8402;DHT22;4238;48.404;9.498;2023-04-22T05:31:34;7.60;99.90
8402;DHT22;4238;48.404;9.498;2023-04-22T05:34:01;7.60;99.90
8402;DHT22;4238;48.404;9.498;2023-04-22T05:36:27;7.70;99.90
8402;DHT22;4238;48.404;9.498;2023-04-22T05:38:56;7.80;99.90
8402;DHT22;4238;48.404;9.498;2023-04-22T05:41:23;7.90;99.90
8402;DHT22;4238;48.404;9.498;2023-04-22T05:43:52;7.90;99.90
8402;DHT22;4238;48.404;9.498;2023-04-22T05:46:18;8.00;99.90
8402;DHT22;4238;48.404;9.498;2023-04-22T05:48:45;8.10;99.60
8402;DHT22;4238;48.404;9.498;2023-04-22T05:51:13;8.30;99.20
8402;DHT22;4238;48.404;9.498;2023-04-22T05:53:40;8.40;97.80
8402;DHT22;4238;48.404;9.498;2023-04-22T05:56:07;8.40;99.90
8402;DHT22;4238;48.404;9.498;2023-04-22T05:58:34;8.50;97.90
8402;DHT22;4238;48.404;9.498;2023-04-22T06:01:03;8.60;99.90
8402;DHT22;4238;48.404;9.498;2023-04-22T06:03:30;8.70;98.70
8402;DHT22;4238;48.404;9.498;2023-04-22T06:05:57;8.80;95.10
8402;DHT22;4238;48.404;9.498;2023-04-22T06:08:25;8.90;94.50
8402;DHT22;4238;48.404;9.498;2023-04-22T06:10:52;9.20;97.20
8402;DHT22;4238;48.404;9.498;2023-04-22T06:13:19;9.30;91.00
8402;DHT22;4238;48.404;9.498;2023-04-22T06:15:46;9.40;80.70
8402;DHT22;4238;48.404;9.498;2023-04-22T06:18:14;9.60;89.20
8402;DHT22;4238;48.404;9.498;2023-04-22T06:20:41;9.80;88.90
8402;DHT22;4238;48.404;9.498;2023-04-22T06:23:08;9.90;68.70
8402;DHT22;4238;48.404;9.498;2023-04-22T06:25:35;10.20;62.40
8402;DHT22;4238;48.404;9.498;2023-04-22T06:28:02;10.30;53.70
8402;DHT22;4238;48.404;9.498;2023-04-22T06:30:29;10.60;49.00
8402;DHT22;4238;48.404;9.498;2023-04-22T06:32:56;10.70;37.30
8402;DHT22;4238;48.404;9.498;2023-04-22T06:35:24;10.80;33.70
8402;DHT22;4238;48.404;9.498;2023-04-22T06:37:51;10.90;29.70
8402;DHT22;4238;48.404;9.498;2023-04-22T06:40:18;11.10;25.90
8402;DHT22;4238;48.404;9.498;2023-04-22T06:42:45;11.30;28.30
8402;DHT22;4238;48.404;9.498;2023-04-22T06:45:12;11.60;24.90
8402;DHT22;4238;48.404;9.498;2023-04-22T06:47:38;11.90;1.00
8402;DHT22;4238;48.404;9.498;2023-04-22T06:50:06;12.30;1.00
8402;DHT22;4238;48.404;9.498;2023-04-22T06:52:35;12.60;1.00
8402;DHT22;4238;48.404;9.498;2023-04-22T06:55:02;12.90;1.00
8402;DHT22;4238;48.404;9.498;2023-04-22T06:57:29;13.10;99.90
8402;DHT22;4238;48.404;9.498;2023-04-22T06:59:56;13.20;99.90
8402;DHT22;4238;48.404;9.498;2023-04-22T07:02:23;13.30;1.00
8402;DHT22;4238;48.404;9.498;2023-04-22T07:04:50;13.30;99.90
8402;DHT22;4238;48.404;9.498;2023-04-22T07:07:17;13.40;1.00
8402;DHT22;4238;48.404;9.498;2023-04-22T07:09:45;13.50;99.90
8402;DHT22;4238;48.404;9.498;2023-04-22T07:12:13;13.50;1.00
8402;DHT22;4238;48.404;9.498;2023-04-22T07:14:42;13.50;99.90
8402;DHT22;4238;48.404;9.498;2023-04-22T07:17:10;13.50;1.00
8402;DHT22;4238;48.404;9.498;2023-04-22T07:19:37;13.60;1.00
8402;DHT22;4238;48.404;9.498;2023-04-22T07:22:04;13.70;1.00
8402;DHT22;4238;48.404;9.498;2023-04-22T07:24:31;13.80;1.00
8402;DHT22;4238;48.404;9.498;2023-04-22T07:27:00;13.90;12.90
8402;DHT22;4238;48.404;9.498;2023-04-22T07:29:27;13.90;1.00
8402;DHT22;4238;48.404;9.498;2023-04-22T07:31:54;14.10;99.90
8402;DHT22;4238;48.404;9.498;2023-04-22T07:34:22;14.30;1.00
8402;DHT22;4238;48.404;9.498;2023-04-22T07:36:49;14.50;1.00
8402;DHT22;4238;48.404;9.498;2023-04-22T07:39:16;14.60;13.40
8402;DHT22;4238;48.404;9.498;2023-04-22T07:41:43;14.70;99.90
8402;DHT22;4238;48.404;9.498;2023-04-22T07:44:11;14.90;99.90
8402;DHT22;4238;48.404;9.498;2023-04-22T07:46:42;14.60;1.00
8402;DHT22;4238;48.404;9.498;2023-04-22T07:49:09;14.60;1.00
8402;DHT22;4238;48.404;9.498;2023-04-22T07:51:38;14.90;1.00
8402;DHT22;4238;48.404;9.498;2023-04-22T07:54:05;15.20;99.90
8402;DHT22;4238;48.404;9.498;2023-04-22T07:56:32;15.50;88.10
8402;DHT22;4238;48.404;9.498;2023-04-22T07:58:59;15.60;1.00
8402;DHT22;4238;48.404;9.498;2023-04-22T08:01:28;15.90;1.00
8402;DHT22;4238;48.404;9.498;2023-04-22T08:03:55;15.80;27.30
8402;DHT22;4238;48.404;9.498;2023-04-22T08:06:22;15.30;1.00
8402;DHT22;4238;48.404;9.498;2023-04-22T08:08:49;14.90;1.00
8402;DHT22;4238;48.404;9.498;2023-04-22T08:11:16;14.80;1.00
8402;DHT22;4238;48.404;9.498;2023-04-22T08:13:43;14.60;1.00
8402;DHT22;4238;48.404;9.498;2023-04-22T08:16:10;14.70;99.90
8402;DHT22;4238;48.404;9.498;2023-04-22T08:18:38;14.70;99.90
8402;DHT22;4238;48.404;9.498;2023-04-22T08:21:05;14.90;1.00
8402;DHT22;4238;48.404;9.498;2023-04-22T08:23:32;15.00;20.30
8402;DHT22;4238;48.404;9.498;2023-04-22T08:25:59;15.50;1.00
8402;DHT22;4238;48.404;9.498;2023-04-22T08:28:26;15.80;1.00
8402;DHT22;4238;48.404;9.498;2023-04-22T08:30:53;16.20;99.90
8402;DHT22;4238;48.404;9.498;2023-04-22T08:33:20;16.70;99.90
8402;DHT22;4238;48.404;9.498;2023-04-22T08:35:48;17.10;99.90
8402;DHT22;4238;48.404;9.498;2023-04-22T08:38:16;17.30;1.00
8402;DHT22;4238;48.404;9.498;2023-04-22T08:40:42;17.90;1.00
8402;DHT22;4238;48.404;9.498;2023-04-22T08:43:10;18.50;1.00
8402;DHT22;4238;48.404;9.498;2023-04-22T08:45:38;19.00;99.90
8402;DHT22;4238;48.404;9.498;2023-04-22T08:48:06;19.20;99.90
8402;DHT22;4238;48.404;9.498;2023-04-22T08:50:36;19.20;99.90
8402;DHT22;4238;48.404;9.498;2023-04-22T08:53:05;19.20;99.90
8402;DHT22;4238;48.404;9.498;2023-04-22T08:55:33;19.20;83.90
8402;DHT22;4238;48.404;9.498;2023-04-22T08:58:03;19.30;25.30
8402;DHT22;4238;48.404;9.498;2023-04-22T09:00:31;19.80;87.30
8402;DHT22;4238;48.404;9.498;2023-04-22T09:03:01;19.80;1.00
8402;DHT22;4238;48.404;9.498;2023-04-22T09:05:28;20.20;1.00
8402;DHT22;4238;48.404;9.498;2023-04-22T09:07:58;20.30;1.00
8402;DHT22;4238;48.404;9.498;2023-04-22T09:10:26;20.30;1.00
8402;DHT22;4238;48.404;9.498;2023-04-22T09:12:54;20.40;1.00
8402;DHT22;4238;48.404;9.498;2023-04-22T09:15:21;19.90;1.00
8402;DHT22;4238;48.404;9.498;2023-04-22T09:17:50;19.60;1.00
8402;DHT22;4238;48.404;9.498;2023-04-22T09:20:18;20.00;1.00
8402;DHT22;4238;48.404;9.498;2023-04-22T09:22:46;20.10;1.00
8402;DHT22;4238;48.404;9.498;2023-04-22T09:25:16;20.40;1.00
8402;DHT22;4238;48.404;9.498;2023-04-22T09:27:48;19.70;99.90
8402;DHT22;4238;48.404;9.498;2023-04-22T09:30:17;19.80;1.00
8402;DHT22;4238;48.404;9.498;2023-04-22T09:32:51;20.10;1.00
8402;DHT22;4238;48.404;9.498;2023-04-22T09:35:26;20.00;1.00
8402;DHT22;4238;48.404;9.498;2023-04-22T09:37:53;19.20;99.90
8402;DHT22;4238;48.404;9.498;2023-04-22T09:40:20;19.30;1.00
8402;DHT22;4238;48.404;9.498;2023-04-22T09:42:49;20.10;1.00
8402;DHT22;4238;48.404;9.498;2023-04-22T09:45:30;20.10;99.90
8402;DHT22;4238;48.404;9.498;2023-04-22T09:48:02;20.30;99.90
8402;DHT22;4238;48.404;9.498;2023-04-22T09:50:29;19.80;99.90
8402;DHT22;4238;48.404;9.498;2023-04-22T09:52:58;19.60;99.90
8402;DHT22;4238;48.404;9.498;2023-04-22T09:55:26;19.50;99.90
8402;DHT22;4238;48.404;9.498;2023-04-22T09:57:56;19.10;99.90
8402;DHT22;4238;48.404;9.498;2023-04-22T10:00:26;19.70;99.90
8402;DHT22;4238;48.404;9.498;2023-04-22T10:02:54;19.80;99.90
8402;DHT22;4238;48.404;9.498;2023-04-22T10:05:21;20.00;99.90
8402;DHT22;4238;48.404;9.498;2023-04-22T10:07:48;20.40;99.90
8402;DHT22;4238;48.404;9.498;2023-04-22T10:10:14;20.70;99.90
8402;DHT22;4238;48.404;9.498;2023-04-22T10:12:41;21.30;99.90
8402;DHT22;4238;48.404;9.498;2023-04-22T10:15:10;21.60;99.90
8402;DHT22;4238;48.404;9.498;2023-04-22T10:17:38;21.60;99.90
8402;DHT22;4238;48.404;9.498;2023-04-22T10:20:08;21.90;99.90
8402;DHT22;4238;48.404;9.498;2023-04-22T10:22:39;21.80;99.90
8402;DHT22;4238;48.404;9.498;2023-04-22T10:25:11;22.00;99.90
8402;DHT22;4238;48.404;9.498;2023-04-22T10:27:38;21.50;99.90
8402;DHT22;4238;48.404;9.498;2023-04-22T10:30:07;21.70;99.90
8402;DHT22;4238;48.404;9.498;2023-04-22T10:32:36;21.90;99.90
8402;DHT22;4238;48.404;9.498;2023-04-22T10:35:11;22.30;99.90
8402;DHT22;4238;48.404;9.498;2023-04-22T10:37:44;22.40;99.90
8402;DHT22;4238;48.404;9.498;2023-04-22T10:40:15;22.40;99.90
8402;DHT22;4238;48.404;9.498;2023-04-22T10:42:46;22.70;99.90
8402;DHT22;4238;48.404;9.498;2023-04-22T10:45:14;22.50;99.90
8402;DHT22;4238;48.404;9.498;2023-04-22T10:47:43;22.60;99.90
8402;DHT22;4238;48.404;9.498;2023-04-22T10:50:24;22.80;99.90
8402;DHT22;4238;48.404;9.498;2023-04-22T10:52:54;23.00;99.90
8402;DHT22;4238;48.404;9.498;2023-04-22T10:55:22;22.70;99.90
8402;DHT22;4238;48.404;9.498;2023-04-22T10:57:50;22.60;99.90
8402;DHT22;4238;48.404;9.498;2023-04-22T11:00:33;22.10;99.90
8402;DHT22;4238;48.404;9.498;2023-04-22T11:03:27;21.70;99.90
8402;DHT22;4238;48.404;9.498;2023-04-22T11:06:11;21.90;99.90
8402;DHT22;4238;48.404;9.498;2023-04-22T11:08:43;22.40;99.90
8402;DHT22;4238;48.404;9.498;2023-04-22T11:11:11;22.30;99.90
8402;DHT22;4238;48.404;9.498;2023-04-22T11:13:40;21.60;99.90
8402;DHT22;4238;48.404;9.498;2023-04-22T11:16:08;21.00;99.90
8402;DHT22;4238;48.404;9.498;2023-04-22T11:18:37;21.40;99.90
8402;DHT22;4238;48.404;9.498;2023-04-22T11:21:05;22.00;99.90
8402;DHT22;4238;48.404;9.498;2023-04-22T11:23:33;21.60;99.90
8402;DHT22;4238;48.404;9.498;2023-04-22T11:26:02;21.90;99.90
8402;DHT22;4238;48.404;9.498;2023-04-22T11:28:30;22.30;99.90
8402;DHT22;4238;48.404;9.498;2023-04-22T11:31:01;22.80;99.90
8402;DHT22;4238;48.404;9.498;2023-04-22T11:33:28;23.50;99.90
8402;DHT22;4238;48.404;9.498;2023-04-22T11:35:57;23.20;99.90
8402;DHT22;4238;48.404;9.498;2023-04-22T11:38:24;22.30;99.90
8402;DHT22;4238;48.404;9.498;2023-04-22T11:40:53;22.00;99.90
8402;DHT22;4238;48.404;9.498;2023-04-22T11:43:20;22.30;99.90
8402;DHT22;4238;48.404;9.498;2023-04-22T11:45:47;22.20;99.90
8402;DHT22;4238;48.404;9.498;2023-04-22T11:48:14;22.30;99.90
8402;DHT22;4238;48.404;9.498;2023-04-22T11:50:41;22.50;99.90
8402;DHT22;4238;48.404;9.498;2023-04-22T11:53:15;22.60;99.90
8402;DHT22;4238;48.404;9.498;2023-04-22T11:55:43;21.90;99.90
8402;DHT22;4238;48.404;9.498;2023-04-22T11:58:12;21.40;99.90
8402;DHT22;4238;48.404;9.498;2023-04-22T12:00:41;21.50;99.90
8402;DHT22;4238;48.404;9.498;2023-04-22T12:03:12;21.70;99.90
8402;DHT22;4238;48.404;9.498;2023-04-22T12:05:41;21.60;99.90
8402;DHT22;4238;48.404;9.498;2023-04-22T12:08:10;21.20;99.90
8402;DHT22;4238;48.404;9.498;2023-04-22T12:10:43;21.20;99.90
8402;DHT22;4238;48.404;9.498;2023-04-22T12:13:17;21.50;99.90
8402;DHT22;4238;48.404;9.498;2023-04-22T12:15:45;21.80;99.90
8402;DHT22;4238;48.404;9.498;2023-04-22T12:18:12;21.50;99.90
8402;DHT22;4238;48.404;9.498;2023-04-22T12:20:40;21.80;99.90
8402;DHT22;4238;48.404;9.498;2023-04-22T12:23:13;22.00;99.90
8402;DHT22;4238;48.404;9.498;2023-04-22T12:25:42;22.20;99.90
8402;DHT22;4238;48.404;9.498;2023-04-22T12:28:10;22.20;99.90
8402;DHT22;4238;48.404;9.498;2023-04-22T12:30:38;21.70;99.90
8402;DHT22;4238;48.404;9.498;2023-04-22T12:33:07;21.70;99.90
8402;DHT22;4238;48.404;9.498;2023-04-22T12:35:35;22.40;99.90
8402;DHT22;4238;48.404;9.498;2023-04-22T12:38:02;22.60;99.90
8402;DHT22;4238;48.404;9.498;2023-04-22T12:40:29;22.80;99.90
8402;DHT22;4238;48.404;9.498;2023-04-22T12:42:57;23.20;99.90
8402;DHT22;4238;48.404;9.498;2023-04-22T12:45:24;23.30;99.90
8402;DHT22;4238;48.404;9.498;2023-04-22T12:47:52;22.50;99.90
8402;DHT22;4238;48.404;9.498;2023-04-22T12:50:20;22.60;99.90
8402;DHT22;4238;48.404;9.498;2023-04-22T12:52:47;22.50;99.90
8402;DHT22;4238;48.404;9.498;2023-04-22T12:55:14;22.20;99.90
8402;DHT22;4238;48.404;9.498;2023-04-22T12:57:40;22.00;99.90
8402;DHT22;4238;48.404;9.498;2023-04-22T13:00:10;21.20;99.90
8402;DHT22;4238;48.404;9.498;2023-04-22T13:02:40;20.90;99.90
8402;DHT22;4238;48.404;9.498;2023-04-22T13:05:07;20.90;99.90
8402;DHT22;4238;48.404;9.498;2023-04-22T13:07:35;20.70;99.90
8402;DHT22;4238;48.404;9.498;2023-04-22T13:10:02;20.70;99.90
8402;DHT22;4238;48.404;9.498;2023-04-22T13:12:29;20.70;99.90
8402;DHT22;4238;48.404;9.498;2023-04-22T13:14:56;20.40;99.90
8402;DHT22;4238;48.404;9.498;2023-04-22T13:17:25;20.20;99.90
8402;DHT22;4238;48.404;9.498;2023-04-22T13:19:52;20.10;99.90
8402;DHT22;4238;48.404;9.498;2023-04-22T13:22:18;20.10;99.90
8402;DHT22;4238;48.404;9.498;2023-04-22T13:24:45;20.20;99.90
8402;DHT22;4238;48.404;9.498;2023-04-22T13:27:12;20.20;99.90
8402;DHT22;4238;48.404;9.498;2023-04-22T13:29:39;20.20;99.90
8402;DHT22;4238;48.404;9.498;2023-04-22T13:32:07;20.30;99.90
8402;DHT22;4238;48.404;9.498;2023-04-22T13:34:35;20.20;99.90
8402;DHT22;4238;48.404;9.498;2023-04-22T13:37:02;19.80;99.90
8402;DHT22;4238;48.404;9.498;2023-04-22T13:39:29;19.30;99.90
8402;DHT22;4238;48.404;9.498;2023-04-22T13:41:57;19.40;99.90
8402;DHT22;4238;48.404;9.498;2023-04-22T13:44:24;19.20;99.90
8402;DHT22;4238;48.404;9.498;2023-04-22T13:46:51;19.20;99.90
8402;DHT22;4238;48.404;9.498;2023-04-22T13:49:18;19.20;99.90
8402;DHT22;4238;48.404;9.498;2023-04-22T13:51:47;19.30;99.90
8402;DHT22;4238;48.404;9.498;2023-04-22T13:54:13;19.10;99.90
8402;DHT22;4238;48.404;9.498;2023-04-22T13:56:40;18.90;99.90
8402;DHT22;4238;48.404;9.498;2023-04-22T13:59:07;18.90;99.90
8402;DHT22;4238;48.404;9.498;2023-04-22T14:01:34;18.70;99.90
8402;DHT22;4238;48.404;9.498;2023-04-22T14:04:02;18.70;99.90
8402;DHT22;4238;48.404;9.498;2023-04-22T14:06:29;18.70;99.90
8402;DHT22;4238;48.404;9.498;2023-04-22T14:08:58;18.70;99.90
8402;DHT22;4238;48.404;9.498;2023-04-22T14:11:25;18.70;99.90
8402;DHT22;4238;48.404;9.498;2023-04-22T14:13:52;18.70;99.90
8402;DHT22;4238;48.404;9.498;2023-04-22T14:16:19;18.70;99.90
8402;DHT22;4238;48.404;9.498;2023-04-22T14:18:46;18.70;99.90
8402;DHT22;4238;48.404;9.498;2023-04-22T14:21:13;18.60;99.90
8402;DHT22;4238;48.404;9.498;2023-04-22T14:23:41;18.60;1.00
8402;DHT22;4238;48.404;9.498;2023-04-22T14:26:11;18.60;1.00
8402;DHT22;4238;48.404;9.498;2023-04-22T14:28:39;18.70;1.00
8402;DHT22;4238;48.404;9.498;2023-04-22T14:31:06;18.80;1.00
8402;DHT22;4238;48.404;9.498;2023-04-22T14:33:33;18.70;1.00
8402;DHT22;4238;48.404;9.498;2023-04-22T14:36:00;18.70;1.00
8402;DHT22;4238;48.404;9.498;2023-04-22T14:38:27;18.80;1.00
8402;DHT22;4238;48.404;9.498;2023-04-22T14:40:54;18.90;1.00
8402;DHT22;4238;48.404;9.498;2023-04-22T14:43:23;18.80;1.00
8402;DHT22;4238;48.404;9.498;2023-04-22T14:45:50;18.80;1.00
8402;DHT22;4238;48.404;9.498;2023-04-22T14:48:17;18.90;1.00
8402;DHT22;4238;48.404;9.498;2023-04-22T14:50:44;18.80;1.00
8402;DHT22;4238;48.404;9.498;2023-04-22T14:53:11;18.80;1.00
8402;DHT22;4238;48.404;9.498;2023-04-22T14:55:38;18.80;1.00
8402;DHT22;4238;48.404;9.498;2023-04-22T14:58:05;18.80;1.00
8402;DHT22;4238;48.404;9.498;2023-04-22T15:00:33;18.80;1.00
8402;DHT22;4238;48.404;9.498;2023-04-22T15:03:00;18.70;1.00
8402;DHT22;4238;48.404;9.498;2023-04-22T15:05:27;18.70;1.00
8402;DHT22;4238;48.404;9.498;2023-04-22T15:07:54;18.60;1.00
8402;DHT22;4238;48.404;9.498;2023-04-22T15:10:23;18.60;1.00
8402;DHT22;4238;48.404;9.498;2023-04-22T15:12:50;18.70;1.00
8402;DHT22;4238;48.404;9.498;2023-04-22T15:15:17;18.70;1.00
8402;DHT22;4238;48.404;9.498;2023-04-22T15:17:45;18.60;1.00
8402;DHT22;4238;48.404;9.498;2023-04-22T15:20:12;18.60;1.00
8402;DHT22;4238;48.404;9.498;2023-04-22T15:22:39;18.60;1.00
8402;DHT22;4238;48.404;9.498;2023-04-22T15:25:07;18.60;1.00
8402;DHT22;4238;48.404;9.498;2023-04-22T15:27:35;18.50;1.00
8402;DHT22;4238;48.404;9.498;2023-04-22T15:30:03;18.50;1.00
8402;DHT22;4238;48.404;9.498;2023-04-22T15:32:31;18.40;1.00
8402;DHT22;4238;48.404;9.498;2023-04-22T15:34:59;18.40;1.00
8402;DHT22;4238;48.404;9.498;2023-04-22T15:37:26;18.40;1.00
8402;DHT22;4238;48.404;9.498;2023-04-22T15:39:53;18.40;1.00
8402;DHT22;4238;48.404;9.498;2023-04-22T15:42:20;18.40;1.00
8402;DHT22;4238;48.404;9.498;2023-04-22T15:44:47;18.40;1.00
8402;DHT22;4238;48.404;9.498;2023-04-22T15:47:15;18.40;1.00
8402;DHT22;4238;48.404;9.498;2023-04-22T15:49:42;18.30;1.00
8402;DHT22;4238;48.404;9.498;2023-04-22T15:52:10;18.30;1.00
8402;DHT22;4238;48.404;9.498;2023-04-22T15:54:37;18.30;1.00
8402;DHT22;4238;48.404;9.498;2023-04-22T15:57:04;18.20;1.00
8402;DHT22;4238;48.404;9.498;2023-04-22T15:59:31;18.30;1.00
8402;DHT22;4238;48.404;9.498;2023-04-22T16:01:58;18.20;1.00
8402;DHT22;4238;48.404;9.498;2023-04-22T16:04:25;18.10;1.00
8402;DHT22;4238;48.404;9.498;2023-04-22T16:06:52;18.10;99.90
8402;DHT22;4238;48.404;9.498;2023-04-22T16:09:23;18.00;99.90
8402;DHT22;4238;48.404;9.498;2023-04-22T16:11:49;17.90;99.90
8402;DHT22;4238;48.404;9.498;2023-04-22T16:14:17;17.80;99.90
8402;DHT22;4238;48.404;9.498;2023-04-22T16:16:47;17.80;1.00
8402;DHT22;4238;48.404;9.498;2023-04-22T16:19:13;17.70;1.00
8402;DHT22;4238;48.404;9.498;2023-04-22T16:21:40;17.60;99.90
8402;DHT22;4238;48.404;9.498;2023-04-22T16:24:07;17.60;99.90
8402;DHT22;4238;48.404;9.498;2023-04-22T16:26:39;17.50;1.00
8402;DHT22;4238;48.404;9.498;2023-04-22T16:29:05;17.50;1.00
8402;DHT22;4238;48.404;9.498;2023-04-22T16:31:33;17.40;1.00
8402;DHT22;4238;48.404;9.498;2023-04-22T16:34:00;17.40;1.00
8402;DHT22;4238;48.404;9.498;2023-04-22T16:36:27;17.30;1.00
8402;DHT22;4238;48.404;9.498;2023-04-22T16:38:57;17.20;1.00
8402;DHT22;4238;48.404;9.498;2023-04-22T16:41:24;17.10;1.00
8402;DHT22;4238;48.404;9.498;2023-04-22T16:43:52;17.10;1.00
8402;DHT22;4238;48.404;9.498;2023-04-22T16:46:19;17.10;1.00
8402;DHT22;4238;48.404;9.498;2023-04-22T16:48:46;17.00;1.00
8402;DHT22;4238;48.404;9.498;2023-04-22T16:51:13;16.90;1.00
8402;DHT22;4238;48.404;9.498;2023-04-22T16:53:40;16.90;1.00
8402;DHT22;4238;48.404;9.498;2023-04-22T16:56:07;16.80;1.00
8402;DHT22;4238;48.404;9.498;2023-04-22T16:58:34;16.90;1.00
8402;DHT22;4238;48.404;9.498;2023-04-22T17:01:02;16.80;1.00
8402;DHT22;4238;48.404;9.498;2023-04-22T17:03:29;16.80;1.00
8402;DHT22;4238;48.404;9.498;2023-04-22T17:05:56;16.80;1.00
8402;DHT22;4238;48.404;9.498;2023-04-22T17:08:23;16.70;1.00
8402;DHT22;4238;48.404;9.498;2023-04-22T17:10:49;16.70;1.00
8402;DHT22;4238;48.404;9.498;2023-04-22T17:13:17;16.60;1.00
8402;DHT22;4238;48.404;9.498;2023-04-22T17:15:43;16.60;1.00
8402;DHT22;4238;48.404;9.498;2023-04-22T17:18:12;16.50;1.00
8402;DHT22;4238;48.404;9.498;2023-04-22T17:20:39;16.40;1.00
8402;DHT22;4238;48.404;9.498;2023-04-22T17:23:07;16.40;1.00
8402;DHT22;4238;48.404;9.498;2023-04-22T17:25:34;16.40;1.00
8402;DHT22;4238;48.404;9.498;2023-04-22T17:28:00;16.30;1.00
8402;DHT22;4238;48.404;9.498;2023-04-22T17:30:27;16.30;1.00
8402;DHT22;4238;48.404;9.498;2023-04-22T17:32:54;16.30;1.00
8402;DHT22;4238;48.404;9.498;2023-04-22T17:35:23;16.20;1.00
8402;DHT22;4238;48.404;9.498;2023-04-22T17:37:50;16.10;12.40
8402;DHT22;4238;48.404;9.498;2023-04-22T17:40:18;16.10;99.90
8402;DHT22;4238;48.404;9.498;2023-04-22T17:42:46;16.00;99.90
8402;DHT22;4238;48.404;9.498;2023-04-22T17:45:13;15.90;1.00
8402;DHT22;4238;48.404;9.498;2023-04-22T17:47:40;15.80;99.90
8402;DHT22;4238;48.404;9.498;2023-04-22T17:50:08;15.80;1.00
8402;DHT22;4238;48.404;9.498;2023-04-22T17:52:36;15.70;99.90
8402;DHT22;4238;48.404;9.498;2023-04-22T17:55:04;15.60;99.90
8402;DHT22;4238;48.404;9.498;2023-04-22T17:57:31;15.60;99.90
8402;DHT22;4238;48.404;9.498;2023-04-22T17:59:58;15.50;99.90
8402;DHT22;4238;48.404;9.498;2023-04-22T18:02:25;15.50;1.00
8402;DHT22;4238;48.404;9.498;2023-04-22T18:04:52;15.50;99.90
8402;DHT22;4238;48.404;9.498;2023-04-22T18:07:19;15.40;1.00
8402;DHT22;4238;48.404;9.498;2023-04-22T18:09:47;15.40;1.00
8402;DHT22;4238;48.404;9.498;2023-04-22T18:12:15;15.40;1.00
8402;DHT22;4238;48.404;9.498;2023-04-22T18:14:42;15.40;99.90
8402;DHT22;4238;48.404;9.498;2023-04-22T18:17:09;15.30;99.90
8402;DHT22;4238;48.404;9.498;2023-04-22T18:19:37;15.30;1.00
8402;DHT22;4238;48.404;9.498;2023-04-22T18:22:04;15.20;1.00
8402;DHT22;4238;48.404;9.498;2023-04-22T18:24:30;15.20;99.90
8402;DHT22;4238;48.404;9.498;2023-04-22T18:26:59;15.20;99.90
8402;DHT22;4238;48.404;9.498;2023-04-22T18:29:27;15.20;99.90
8402;DHT22;4238;48.404;9.498;2023-04-22T18:31:54;15.20;1.00
8402;DHT22;4238;48.404;9.498;2023-04-22T18:34:24;15.10;1.00
8402;DHT22;4238;48.404;9.498;2023-04-22T18:36:53;15.10;99.90
8402;DHT22;4238;48.404;9.498;2023-04-22T18:39:20;15.00;99.90
8402;DHT22;4238;48.404;9.498;2023-04-22T18:41:47;15.00;1.00
8402;DHT22;4238;48.404;9.498;2023-04-22T18:44:15;15.00;99.90
8402;DHT22;4238;48.404;9.498;2023-04-22T18:46:42;15.00;77.30
8402;DHT22;4238;48.404;9.498;2023-04-22T18:49:08;14.90;1.00
8402;DHT22;4238;48.404;9.498;2023-04-22T18:51:36;14.90;1.00
8402;DHT22;4238;48.404;9.498;2023-04-22T18:54:04;14.90;99.90
8402;DHT22;4238;48.404;9.498;2023-04-22T18:56:32;14.90;1.00
8402;DHT22;4238;48.404;9.498;2023-04-22T18:58:59;14.80;99.90
8402;DHT22;4238;48.404;9.498;2023-04-22T19:01:27;14.70;99.90
8402;DHT22;4238;48.404;9.498;2023-04-22T19:03:54;14.70;1.00
8402;DHT22;4238;48.404;9.498;2023-04-22T19:06:21;14.70;1.00
8402;DHT22;4238;48.404;9.498;2023-04-22T19:08:48;14.60;1.00
8402;DHT22;4238;48.404;9.498;2023-04-22T19:11:17;14.60;1.00
8402;DHT22;4238;48.404;9.498;2023-04-22T19:13:44;14.50;1.00
8402;DHT22;4238;48.404;9.498;2023-04-22T19:16:11;14.50;1.00
8402;DHT22;4238;48.404;9.498;2023-04-22T19:18:39;14.40;1.00
8402;DHT22;4238;48.404;9.498;2023-04-22T19:21:07;14.40;1.00
8402;DHT22;4238;48.404;9.498;2023-04-22T19:23:34;14.30;1.00
8402;DHT22;4238;48.404;9.498;2023-04-22T19:26:01;14.20;1.00
8402;DHT22;4238;48.404;9.498;2023-04-22T19:28:28;14.20;1.00
8402;DHT22;4238;48.404;9.498;2023-04-22T19:30:55;14.20;1.00
8402;DHT22;4238;48.404;9.498;2023-04-22T19:33:24;14.10;1.00
8402;DHT22;4238;48.404;9.498;2023-04-22T19:35:53;14.10;1.00
8402;DHT22;4238;48.404;9.498;2023-04-22T19:38:20;14.10;1.00
8402;DHT22;4238;48.404;9.498;2023-04-22T19:40:48;14.10;1.00
8402;DHT22;4238;48.404;9.498;2023-04-22T19:43:15;14.00;1.00
8402;DHT22;4238;48.404;9.498;2023-04-22T19:45:43;14.00;1.00
8402;DHT22;4238;48.404;9.498;2023-04-22T19:48:11;14.00;1.00
8402;DHT22;4238;48.404;9.498;2023-04-22T19:50:38;14.00;1.00
8402;DHT22;4238;48.404;9.498;2023-04-22T19:53:09;13.90;1.00
8402;DHT22;4238;48.404;9.498;2023-04-22T19:55:37;13.90;1.00
8402;DHT22;4238;48.404;9.498;2023-04-22T19:58:04;13.80;1.00
8402;DHT22;4238;48.404;9.498;2023-04-22T20:00:31;13.80;1.00
8402;DHT22;4238;48.404;9.498;2023-04-22T20:02:59;13.70;1.00
8402;DHT22;4238;48.404;9.498;2023-04-22T20:05:27;13.60;1.00
8402;DHT22;4238;48.404;9.498;2023-04-22T20:07:56;13.60;1.00
8402;DHT22;4238;48.404;9.498;2023-04-22T20:10:25;13.50;1.00
8402;DHT22;4238;48.404;9.498;2023-04-22T20:12:52;13.50;1.00